sensor_id;sensor_type;location;lat;lon;timestamp;P1;durP1;ratioP1;P2;durP2;ratioP2
70045;SDS011;57385;41.832;23.494;2022-11-23T00:00:03;4.47;;;4.07;;
70045;SDS011;57385;41.832;23.494;2022-11-23T00:00:43;4.90;;;4.40;;
70045;SDS011;57385;41.832;23.494;2022-11-23T00:01:23;4.32;;;3.90;;
70045;SDS011;57385;41.832;23.494;2022-11-23T00:02:06;4.30;;;3.90;;
70045;SDS011;57385;41.832;23.494;2022-11-23T00:02:44;4.13;;;3.72;;
70045;SDS011;57385;41.832;23.494;2022-11-23T00:03:23;4.40;;;4.00;;
70045;SDS011;57385;41.832;23.494;2022-11-23T00:04:03;4.35;;;3.95;;
70045;SDS011;57385;41.832;23.494;2022-11-23T00:04:43;4.10;;;3.70;;
70045;SDS011;57385;41.832;23.494;2022-11-23T00:05:23;4.30;;;3.90;;
70045;SDS011;57385;41.832;23.494;2022-11-23T00:06:01;3.95;;;3.50;;
70045;SDS011;57385;41.832;23.494;2022-11-23T00:06:40;3.83;;;3.53;;
70045;SDS011;57385;41.832;23.494;2022-11-23T00:07:19;3.83;;;3.53;;
70045;SDS011;57385;41.832;23.494;2022-11-23T00:07:58;4.07;;;3.38;;
70045;SDS011;57385;41.832;23.494;2022-11-23T00:08:36;3.78;;;3.40;;
70045;SDS011;57385;41.832;23.494;2022-11-23T00:09:15;4.53;;;3.92;;
70045;SDS011;57385;41.832;23.494;2022-11-23T00:09:54;4.22;;;3.83;;
70045;SDS011;57385;41.832;23.494;2022-11-23T00:10:33;4.95;;;3.95;;
70045;SDS011;57385;41.832;23.494;2022-11-23T00:11:12;4.30;;;3.72;;
70045;SDS011;57385;41.832;23.494;2022-11-23T00:11:51;4.03;;;3.58;;
70045;SDS011;57385;41.832;23.494;2022-11-23T00:12:30;4.70;;;4.07;;
70045;SDS011;57385;41.832;23.494;2022-11-23T00:13:09;3.97;;;3.58;;
70045;SDS011;57385;41.832;23.494;2022-11-23T00:13:47;3.72;;;3.40;;
70045;SDS011;57385;41.832;23.494;2022-11-23T00:14:26;3.78;;;3.33;;
70045;SDS011;57385;41.832;23.494;2022-11-23T00:15:05;3.97;;;3.55;;
70045;SDS011;57385;41.832;23.494;2022-11-23T00:15:45;4.07;;;3.60;;
70045;SDS011;57385;41.832;23.494;2022-11-23T00:16:25;3.47;;;3.17;;
70045;SDS011;57385;41.832;23.494;2022-11-23T00:17:06;4.20;;;3.55;;
70045;SDS011;57385;41.832;23.494;2022-11-23T00:17:46;3.58;;;3.20;;
70045;SDS011;57385;41.832;23.494;2022-11-23T00:18:25;4.18;;;3.78;;
70045;SDS011;57385;41.832;23.494;2022-11-23T00:19:04;4.10;;;3.70;;
70045;SDS011;57385;41.832;23.494;2022-11-23T00:19:43;3.63;;;3.33;;
70045;SDS011;57385;41.832;23.494;2022-11-23T00:20:21;4.28;;;3.67;;
70045;SDS011;57385;41.832;23.494;2022-11-23T00:21:07;4.00;;;3.60;;
70045;SDS011;57385;41.832;23.494;2022-11-23T00:21:48;3.63;;;3.33;;
70045;SDS011;57385;41.832;23.494;2022-11-23T00:22:27;3.83;;;3.45;;
70045;SDS011;57385;41.832;23.494;2022-11-23T00:23:06;3.63;;;3.30;;
70045;SDS011;57385;41.832;23.494;2022-11-23T00:23:45;3.85;;;3.45;;
70045;SDS011;57385;41.832;23.494;2022-11-23T00:24:24;3.97;;;3.60;;
70045;SDS011;57385;41.832;23.494;2022-11-23T00:25:03;3.85;;;3.50;;
70045;SDS011;57385;41.832;23.494;2022-11-23T00:25:43;4.45;;;4.05;;
70045;SDS011;57385;41.832;23.494;2022-11-23T00:26:22;4.85;;;4.35;;
70045;SDS011;57385;41.832;23.494;2022-11-23T00:27:01;5.10;;;4.30;;
70045;SDS011;57385;41.832;23.494;2022-11-23T00:27:40;4.40;;;4.00;;
70045;SDS011;57385;41.832;23.494;2022-11-23T00:28:19;4.88;;;4.15;;
70045;SDS011;57385;41.832;23.494;2022-11-23T00:28:57;4.40;;;4.00;;
70045;SDS011;57385;41.832;23.494;2022-11-23T00:29:38;4.53;;;4.13;;
70045;SDS011;57385;41.832;23.494;2022-11-23T00:30:17;4.82;;;3.80;;
70045;SDS011;57385;41.832;23.494;2022-11-23T00:30:56;4.06;;;3.66;;
70045;SDS011;57385;41.832;23.494;2022-11-23T00:31:35;5.00;;;3.95;;
70045;SDS011;57385;41.832;23.494;2022-11-23T00:32:14;5.47;;;4.05;;
70045;SDS011;57385;41.832;23.494;2022-11-23T00:32:53;4.18;;;3.67;;
70045;SDS011;57385;41.832;23.494;2022-11-23T00:33:32;4.10;;;3.47;;
70045;SDS011;57385;41.832;23.494;2022-11-23T00:34:12;3.70;;;3.17;;
70045;SDS011;57385;41.832;23.494;2022-11-23T00:34:50;3.80;;;3.40;;
70045;SDS011;57385;41.832;23.494;2022-11-23T00:35:29;3.30;;;2.80;;
70045;SDS011;57385;41.832;23.494;2022-11-23T00:36:12;2.60;;;2.38;;
70045;SDS011;57385;41.832;23.494;2022-11-23T00:36:51;2.90;;;2.50;;
70045;SDS011;57385;41.832;23.494;2022-11-23T00:37:30;2.60;;;2.40;;
70045;SDS011;57385;41.832;23.494;2022-11-23T00:38:10;2.40;;;2.20;;
70045;SDS011;57385;41.832;23.494;2022-11-23T00:38:49;2.40;;;2.20;;
70045;SDS011;57385;41.832;23.494;2022-11-23T00:39:28;2.33;;;2.10;;
70045;SDS011;57385;41.832;23.494;2022-11-23T00:40:07;2.75;;;2.22;;
70045;SDS011;57385;41.832;23.494;2022-11-23T00:40:46;2.17;;;1.92;;
70045;SDS011;57385;41.832;23.494;2022-11-23T00:41:26;2.08;;;1.90;;
70045;SDS011;57385;41.832;23.494;2022-11-23T00:42:05;2.25;;;1.90;;
70045;SDS011;57385;41.832;23.494;2022-11-23T00:42:44;2.33;;;2.10;;
70045;SDS011;57385;41.832;23.494;2022-11-23T00:43:22;2.15;;;1.98;;
70045;SDS011;57385;41.832;23.494;2022-11-23T00:44:01;2.10;;;1.90;;
70045;SDS011;57385;41.832;23.494;2022-11-23T00:44:40;1.90;;;1.80;;
70045;SDS011;57385;41.832;23.494;2022-11-23T00:45:19;2.03;;;1.65;;
70045;SDS011;57385;41.832;23.494;2022-11-23T00:46:16;1.60;;;1.50;;
70045;SDS011;57385;41.832;23.494;2022-11-23T00:46:59;1.80;;;1.63;;
70045;SDS011;57385;41.832;23.494;2022-11-23T00:47:38;1.63;;;1.52;;
70045;SDS011;57385;41.832;23.494;2022-11-23T00:48:17;1.50;;;1.40;;
70045;SDS011;57385;41.832;23.494;2022-11-23T00:48:56;1.77;;;1.67;;
70045;SDS011;57385;41.832;23.494;2022-11-23T00:49:36;1.50;;;1.40;;
70045;SDS011;57385;41.832;23.494;2022-11-23T00:50:15;1.27;;;1.17;;
70045;SDS011;57385;41.832;23.494;2022-11-23T00:50:54;1.50;;;1.40;;
70045;SDS011;57385;41.832;23.494;2022-11-23T00:51:34;2.13;;;1.70;;
70045;SDS011;57385;41.832;23.494;2022-11-23T00:52:14;1.70;;;1.60;;
70045;SDS011;57385;41.832;23.494;2022-11-23T00:52:52;2.05;;;1.90;;
70045;SDS011;57385;41.832;23.494;2022-11-23T00:53:33;2.30;;;2.10;;
70045;SDS011;57385;41.832;23.494;2022-11-23T00:54:12;2.60;;;1.92;;
70045;SDS011;57385;41.832;23.494;2022-11-23T00:54:51;2.40;;;2.20;;
70045;SDS011;57385;41.832;23.494;2022-11-23T00:55:29;2.42;;;2.22;;
70045;SDS011;57385;41.832;23.494;2022-11-23T00:56:08;2.38;;;2.17;;
70045;SDS011;57385;41.832;23.494;2022-11-23T00:56:47;3.25;;;2.58;;
70045;SDS011;57385;41.832;23.494;2022-11-23T00:57:26;2.60;;;2.40;;
70045;SDS011;57385;41.832;23.494;2022-11-23T00:58:05;2.72;;;2.30;;
70045;SDS011;57385;41.832;23.494;2022-11-23T00:58:50;3.00;;;2.60;;
70045;SDS011;57385;41.832;23.494;2022-11-23T00:59:30;3.42;;;3.13;;
70045;SDS011;57385;41.832;23.494;2022-11-23T01:00:09;4.85;;;3.50;;
70045;SDS011;57385;41.832;23.494;2022-11-23T01:00:48;4.70;;;4.20;;
70045;SDS011;57385;41.832;23.494;2022-11-23T01:01:29;5.38;;;4.28;;
70045;SDS011;57385;41.832;23.494;2022-11-23T01:02:09;6.13;;;4.90;;
70045;SDS011;57385;41.832;23.494;2022-11-23T01:02:48;6.03;;;5.13;;
70045;SDS011;57385;41.832;23.494;2022-11-23T01:03:28;7.93;;;5.95;;
70045;SDS011;57385;41.832;23.494;2022-11-23T01:04:07;7.80;;;5.82;;
70045;SDS011;57385;41.832;23.494;2022-11-23T01:04:46;7.47;;;5.57;;
70045;SDS011;57385;41.832;23.494;2022-11-23T01:05:25;7.80;;;5.65;;
70045;SDS011;57385;41.832;23.494;2022-11-23T01:06:04;6.53;;;5.82;;
70045;SDS011;57385;41.832;23.494;2022-11-23T01:06:47;5.60;;;4.80;;
70045;SDS011;57385;41.832;23.494;2022-11-23T01:07:27;6.50;;;5.40;;
70045;SDS011;57385;41.832;23.494;2022-11-23T01:08:06;7.60;;;5.05;;
70045;SDS011;57385;41.832;23.494;2022-11-23T01:08:48;5.57;;;4.85;;
70045;SDS011;57385;41.832;23.494;2022-11-23T01:09:28;5.80;;;4.80;;
70045;SDS011;57385;41.832;23.494;2022-11-23T01:10:07;5.82;;;4.75;;
70045;SDS011;57385;41.832;23.494;2022-11-23T01:10:46;5.60;;;4.47;;
70045;SDS011;57385;41.832;23.494;2022-11-23T01:11:26;6.22;;;4.90;;
70045;SDS011;57385;41.832;23.494;2022-11-23T01:12:06;5.43;;;4.53;;
70045;SDS011;57385;41.832;23.494;2022-11-23T01:12:44;4.82;;;4.07;;
70045;SDS011;57385;41.832;23.494;2022-11-23T01:13:26;4.80;;;4.30;;
70045;SDS011;57385;41.832;23.494;2022-11-23T01:14:04;6.20;;;4.90;;
70045;SDS011;57385;41.832;23.494;2022-11-23T01:14:43;6.95;;;5.22;;
70045;SDS011;57385;41.832;23.494;2022-11-23T01:15:22;5.85;;;4.88;;
70045;SDS011;57385;41.832;23.494;2022-11-23T01:16:06;7.75;;;5.40;;
70045;SDS011;57385;41.832;23.494;2022-11-23T01:16:48;6.78;;;5.53;;
70045;SDS011;57385;41.832;23.494;2022-11-23T01:17:26;9.40;;;7.50;;
70045;SDS011;57385;41.832;23.494;2022-11-23T01:18:05;11.68;;;9.38;;
70045;SDS011;57385;41.832;23.494;2022-11-23T01:18:44;13.52;;;9.98;;
70045;SDS011;57385;41.832;23.494;2022-11-23T01:19:23;11.55;;;9.48;;
70045;SDS011;57385;41.832;23.494;2022-11-23T01:20:01;12.32;;;9.90;;
70045;SDS011;57385;41.832;23.494;2022-11-23T01:20:40;11.70;;;9.57;;
70045;SDS011;57385;41.832;23.494;2022-11-23T01:21:20;13.68;;;10.48;;
70045;SDS011;57385;41.832;23.494;2022-11-23T01:21:59;14.18;;;10.40;;
70045;SDS011;57385;41.832;23.494;2022-11-23T01:22:38;12.75;;;9.70;;
70045;SDS011;57385;41.832;23.494;2022-11-23T01:23:16;12.07;;;9.18;;
70045;SDS011;57385;41.832;23.494;2022-11-23T01:23:55;13.85;;;9.52;;
70045;SDS011;57385;41.832;23.494;2022-11-23T01:24:34;12.73;;;8.50;;
70045;SDS011;57385;41.832;23.494;2022-11-23T01:25:13;13.15;;;8.18;;
70045;SDS011;57385;41.832;23.494;2022-11-23T01:25:52;11.57;;;7.70;;
70045;SDS011;57385;41.832;23.494;2022-11-23T01:26:31;10.65;;;6.97;;
70045;SDS011;57385;41.832;23.494;2022-11-23T01:27:09;9.68;;;6.75;;
70045;SDS011;57385;41.832;23.494;2022-11-23T01:27:48;8.45;;;6.40;;
70045;SDS011;57385;41.832;23.494;2022-11-23T01:28:27;8.95;;;5.93;;
70045;SDS011;57385;41.832;23.494;2022-11-23T01:29:06;6.75;;;5.10;;
70045;SDS011;57385;41.832;23.494;2022-11-23T01:29:45;6.38;;;4.55;;
70045;SDS011;57385;41.832;23.494;2022-11-23T01:30:23;6.90;;;4.55;;
70045;SDS011;57385;41.832;23.494;2022-11-23T01:31:06;5.00;;;3.67;;
70045;SDS011;57385;41.832;23.494;2022-11-23T01:32:04;5.60;;;3.70;;
70045;SDS011;57385;41.832;23.494;2022-11-23T01:32:42;4.70;;;3.58;;
70045;SDS011;57385;41.832;23.494;2022-11-23T01:33:21;4.90;;;3.80;;
70045;SDS011;57385;41.832;23.494;2022-11-23T01:34:03;3.90;;;3.10;;
70045;SDS011;57385;41.832;23.494;2022-11-23T01:34:43;3.63;;;2.85;;
70045;SDS011;57385;41.832;23.494;2022-11-23T01:35:22;3.75;;;2.92;;
70045;SDS011;57385;41.832;23.494;2022-11-23T01:36:07;3.28;;;2.90;;
70045;SDS011;57385;41.832;23.494;2022-11-23T01:37:05;3.67;;;2.83;;
70045;SDS011;57385;41.832;23.494;2022-11-23T01:37:44;3.92;;;3.03;;
70045;SDS011;57385;41.832;23.494;2022-11-23T01:38:22;3.38;;;2.97;;
70045;SDS011;57385;41.832;23.494;2022-11-23T01:39:03;3.80;;;3.03;;
70045;SDS011;57385;41.832;23.494;2022-11-23T01:39:42;3.17;;;2.88;;
70045;SDS011;57385;41.832;23.494;2022-11-23T01:40:21;4.28;;;3.42;;
70045;SDS011;57385;41.832;23.494;2022-11-23T01:41:00;4.25;;;3.50;;
70045;SDS011;57385;41.832;23.494;2022-11-23T01:41:39;4.53;;;3.83;;
70045;SDS011;57385;41.832;23.494;2022-11-23T01:42:20;4.45;;;3.58;;
70045;SDS011;57385;41.832;23.494;2022-11-23T01:42:59;4.22;;;3.45;;
70045;SDS011;57385;41.832;23.494;2022-11-23T01:43:38;4.00;;;3.40;;
70045;SDS011;57385;41.832;23.494;2022-11-23T01:44:21;4.70;;;3.40;;
70045;SDS011;57385;41.832;23.494;2022-11-23T01:46:04;3.35;;;2.90;;
70045;SDS011;57385;41.832;23.494;2022-11-23T01:46:44;3.55;;;2.90;;
70045;SDS011;57385;41.832;23.494;2022-11-23T01:47:22;3.55;;;3.08;;
70045;SDS011;57385;41.832;23.494;2022-11-23T01:48:02;3.10;;;2.67;;
70045;SDS011;57385;41.832;23.494;2022-11-23T01:48:46;2.95;;;2.65;;
70045;SDS011;57385;41.832;23.494;2022-11-23T01:49:30;3.32;;;2.82;;
70045;SDS011;57385;41.832;23.494;2022-11-23T01:50:16;3.05;;;2.63;;
70045;SDS011;57385;41.832;23.494;2022-11-23T01:50:55;2.80;;;2.60;;
70045;SDS011;57385;41.832;23.494;2022-11-23T01:51:37;2.63;;;2.40;;
70045;SDS011;57385;41.832;23.494;2022-11-23T01:52:19;3.10;;;2.40;;
70045;SDS011;57385;41.832;23.494;2022-11-23T01:53:02;2.85;;;2.55;;
70045;SDS011;57385;41.832;23.494;2022-11-23T01:53:41;2.83;;;2.50;;
70045;SDS011;57385;41.832;23.494;2022-11-23T01:54:29;2.65;;;2.45;;
70045;SDS011;57385;41.832;23.494;2022-11-23T01:55:11;2.80;;;2.47;;
70045;SDS011;57385;41.832;23.494;2022-11-23T01:55:50;2.58;;;2.35;;
70045;SDS011;57385;41.832;23.494;2022-11-23T01:56:31;3.30;;;2.60;;
70045;SDS011;57385;41.832;23.494;2022-11-23T01:58:12;2.92;;;2.63;;
70045;SDS011;57385;41.832;23.494;2022-11-23T01:58:53;2.78;;;2.53;;
70045;SDS011;57385;41.832;23.494;2022-11-23T01:59:38;2.80;;;2.50;;
70045;SDS011;57385;41.832;23.494;2022-11-23T02:00:18;3.25;;;2.90;;
70045;SDS011;57385;41.832;23.494;2022-11-23T02:00:57;3.03;;;2.45;;
70045;SDS011;57385;41.832;23.494;2022-11-23T02:01:36;2.60;;;2.40;;
70045;SDS011;57385;41.832;23.494;2022-11-23T02:02:15;2.63;;;2.42;;
70045;SDS011;57385;41.832;23.494;2022-11-23T02:02:55;2.67;;;2.45;;
70045;SDS011;57385;41.832;23.494;2022-11-23T02:03:35;2.60;;;2.40;;
70045;SDS011;57385;41.832;23.494;2022-11-23T02:04:22;2.67;;;2.42;;
70045;SDS011;57385;41.832;23.494;2022-11-23T02:05:05;2.35;;;2.15;;
70045;SDS011;57385;41.832;23.494;2022-11-23T02:05:46;2.50;;;2.30;;
70045;SDS011;57385;41.832;23.494;2022-11-23T02:06:28;3.20;;;2.33;;
70045;SDS011;57385;41.832;23.494;2022-11-23T02:07:15;3.08;;;2.50;;
70045;SDS011;57385;41.832;23.494;2022-11-23T02:07:55;2.60;;;2.40;;
70045;SDS011;57385;41.832;23.494;2022-11-23T02:08:36;2.53;;;2.17;;
70045;SDS011;57385;41.832;23.494;2022-11-23T02:09:16;2.30;;;2.10;;
70045;SDS011;57385;41.832;23.494;2022-11-23T02:09:56;2.53;;;2.30;;
70045;SDS011;57385;41.832;23.494;2022-11-23T02:10:35;2.30;;;2.10;;
70045;SDS011;57385;41.832;23.494;2022-11-23T02:11:15;2.58;;;2.10;;
70045;SDS011;57385;41.832;23.494;2022-11-23T02:11:57;2.30;;;2.10;;
70045;SDS011;57385;41.832;23.494;2022-11-23T02:12:35;2.40;;;2.20;;
70045;SDS011;57385;41.832;23.494;2022-11-23T02:13:15;7.18;;;5.47;;
70045;SDS011;57385;41.832;23.494;2022-11-23T02:13:54;8.20;;;6.25;;
70045;SDS011;57385;41.832;23.494;2022-11-23T02:14:34;11.60;;;8.65;;
70045;SDS011;57385;41.832;23.494;2022-11-23T02:15:13;14.60;;;9.88;;
70045;SDS011;57385;41.832;23.494;2022-11-23T02:15:52;18.77;;;11.52;;
70045;SDS011;57385;41.832;23.494;2022-11-23T02:16:33;19.40;;;11.15;;
70045;SDS011;57385;41.832;23.494;2022-11-23T02:17:13;21.25;;;11.13;;
70045;SDS011;57385;41.832;23.494;2022-11-23T02:17:52;24.67;;;11.93;;
70045;SDS011;57385;41.832;23.494;2022-11-23T02:18:31;20.15;;;11.13;;
70045;SDS011;57385;41.832;23.494;2022-11-23T02:19:19;20.17;;;10.73;;
70045;SDS011;57385;41.832;23.494;2022-11-23T02:20:20;22.63;;;10.50;;
70045;SDS011;57385;41.832;23.494;2022-11-23T02:21:01;17.15;;;9.75;;
70045;SDS011;57385;41.832;23.494;2022-11-23T02:21:41;17.38;;;8.75;;
70045;SDS011;57385;41.832;23.494;2022-11-23T02:23:45;11.45;;;5.90;;
70045;SDS011;57385;41.832;23.494;2022-11-23T02:24:26;8.13;;;4.13;;
70045;SDS011;57385;41.832;23.494;2022-11-23T02:25:09;7.65;;;4.38;;
70045;SDS011;57385;41.832;23.494;2022-11-23T02:26:56;9.00;;;5.00;;
70045;SDS011;57385;41.832;23.494;2022-11-23T02:27:35;11.60;;;7.18;;
70045;SDS011;57385;41.832;23.494;2022-11-23T02:28:15;10.70;;;8.23;;
70045;SDS011;57385;41.832;23.494;2022-11-23T02:29:00;10.05;;;7.63;;
70045;SDS011;57385;41.832;23.494;2022-11-23T02:29:43;9.38;;;7.60;;
70045;SDS011;57385;41.832;23.494;2022-11-23T02:30:22;9.30;;;7.47;;
70045;SDS011;57385;41.832;23.494;2022-11-23T02:31:03;7.82;;;6.35;;
70045;SDS011;57385;41.832;23.494;2022-11-23T02:31:42;8.43;;;6.15;;
70045;SDS011;57385;41.832;23.494;2022-11-23T02:32:21;6.60;;;5.38;;
70045;SDS011;57385;41.832;23.494;2022-11-23T02:33:05;5.55;;;4.93;;
70045;SDS011;57385;41.832;23.494;2022-11-23T02:33:43;5.20;;;4.47;;
70045;SDS011;57385;41.832;23.494;2022-11-23T02:34:23;5.25;;;4.40;;
70045;SDS011;57385;41.832;23.494;2022-11-23T02:35:04;4.00;;;3.60;;
70045;SDS011;57385;41.832;23.494;2022-11-23T02:35:50;4.10;;;3.40;;
70045;SDS011;57385;41.832;23.494;2022-11-23T02:36:42;3.47;;;3.00;;
70045;SDS011;57385;41.832;23.494;2022-11-23T02:37:23;2.60;;;2.40;;
70045;SDS011;57385;41.832;23.494;2022-11-23T02:38:04;2.72;;;2.53;;
70045;SDS011;57385;41.832;23.494;2022-11-23T02:38:43;2.47;;;2.28;;
70045;SDS011;57385;41.832;23.494;2022-11-23T02:39:24;2.53;;;2.33;;
70045;SDS011;57385;41.832;23.494;2022-11-23T02:40:28;2.47;;;2.28;;
70045;SDS011;57385;41.832;23.494;2022-11-23T02:41:10;1.83;;;1.73;;
70045;SDS011;57385;41.832;23.494;2022-11-23T02:41:50;2.25;;;2.05;;
70045;SDS011;57385;41.832;23.494;2022-11-23T02:42:30;1.63;;;1.50;;
70045;SDS011;57385;41.832;23.494;2022-11-23T02:43:10;1.88;;;1.70;;
70045;SDS011;57385;41.832;23.494;2022-11-23T02:43:49;4.07;;;3.15;;
70045;SDS011;57385;41.832;23.494;2022-11-23T02:45:22;10.38;;;7.53;;
70045;SDS011;57385;41.832;23.494;2022-11-23T02:46:22;11.40;;;7.50;;
70045;SDS011;57385;41.832;23.494;2022-11-23T02:47:01;12.25;;;8.23;;
70045;SDS011;57385;41.832;23.494;2022-11-23T02:47:40;12.43;;;7.90;;
70045;SDS011;57385;41.832;23.494;2022-11-23T02:48:21;10.38;;;7.55;;
70045;SDS011;57385;41.832;23.494;2022-11-23T02:48:59;10.90;;;7.20;;
70045;SDS011;57385;41.832;23.494;2022-11-23T02:49:39;10.90;;;7.20;;
70045;SDS011;57385;41.832;23.494;2022-11-23T02:50:19;9.50;;;6.85;;
70045;SDS011;57385;41.832;23.494;2022-11-23T02:50:58;8.75;;;6.15;;
70045;SDS011;57385;41.832;23.494;2022-11-23T02:51:37;7.35;;;5.80;;
70045;SDS011;57385;41.832;23.494;2022-11-23T02:52:16;7.97;;;5.78;;
70045;SDS011;57385;41.832;23.494;2022-11-23T02:52:58;8.45;;;6.05;;
70045;SDS011;57385;41.832;23.494;2022-11-23T02:53:36;7.93;;;5.80;;
70045;SDS011;57385;41.832;23.494;2022-11-23T02:54:15;7.65;;;5.57;;
70045;SDS011;57385;41.832;23.494;2022-11-23T02:54:54;6.70;;;5.55;;
70045;SDS011;57385;41.832;23.494;2022-11-23T02:55:32;6.22;;;5.60;;
70045;SDS011;57385;41.832;23.494;2022-11-23T02:56:13;6.82;;;5.43;;
70045;SDS011;57385;41.832;23.494;2022-11-23T02:56:52;6.57;;;5.72;;
70045;SDS011;57385;41.832;23.494;2022-11-23T02:57:30;7.57;;;5.70;;
70045;SDS011;57385;41.832;23.494;2022-11-23T02:58:09;7.22;;;5.85;;
70045;SDS011;57385;41.832;23.494;2022-11-23T02:58:48;7.05;;;5.68;;
70045;SDS011;57385;41.832;23.494;2022-11-23T02:59:27;7.30;;;5.60;;
70045;SDS011;57385;41.832;23.494;2022-11-23T03:00:06;6.53;;;5.53;;
70045;SDS011;57385;41.832;23.494;2022-11-23T03:00:45;6.25;;;5.63;;
70045;SDS011;57385;41.832;23.494;2022-11-23T03:01:24;6.97;;;5.97;;
70045;SDS011;57385;41.832;23.494;2022-11-23T03:02:03;5.80;;;5.20;;
70045;SDS011;57385;41.832;23.494;2022-11-23T03:02:42;5.72;;;4.93;;
70045;SDS011;57385;41.832;23.494;2022-11-23T03:03:23;5.47;;;4.88;;
70045;SDS011;57385;41.832;23.494;2022-11-23T03:04:01;5.72;;;4.88;;
70045;SDS011;57385;41.832;23.494;2022-11-23T03:04:40;5.25;;;4.72;;
70045;SDS011;57385;41.832;23.494;2022-11-23T03:05:19;5.22;;;4.72;;
70045;SDS011;57385;41.832;23.494;2022-11-23T03:06:02;5.68;;;4.68;;
70045;SDS011;57385;41.832;23.494;2022-11-23T03:06:44;4.97;;;4.47;;
70045;SDS011;57385;41.832;23.494;2022-11-23T03:07:23;5.30;;;4.80;;
70045;SDS011;57385;41.832;23.494;2022-11-23T03:08:01;5.93;;;4.82;;
70045;SDS011;57385;41.832;23.494;2022-11-23T03:08:40;5.50;;;4.68;;
70045;SDS011;57385;41.832;23.494;2022-11-23T03:09:19;7.40;;;5.82;;
70045;SDS011;57385;41.832;23.494;2022-11-23T03:09:58;6.88;;;6.00;;
70045;SDS011;57385;41.832;23.494;2022-11-23T03:10:37;9.35;;;6.70;;
70045;SDS011;57385;41.832;23.494;2022-11-23T03:11:16;8.52;;;6.93;;
70045;SDS011;57385;41.832;23.494;2022-11-23T03:11:56;7.40;;;6.03;;
70045;SDS011;57385;41.832;23.494;2022-11-23T03:12:36;9.13;;;6.50;;
70045;SDS011;57385;41.832;23.494;2022-11-23T03:13:15;8.57;;;6.60;;
70045;SDS011;57385;41.832;23.494;2022-11-23T03:13:54;8.70;;;7.05;;
70045;SDS011;57385;41.832;23.494;2022-11-23T03:14:32;7.65;;;6.85;;
70045;SDS011;57385;41.832;23.494;2022-11-23T03:15:12;9.52;;;7.40;;
70045;SDS011;57385;41.832;23.494;2022-11-23T03:15:55;9.00;;;6.70;;
70045;SDS011;57385;41.832;23.494;2022-11-23T03:16:34;8.55;;;7.18;;
70045;SDS011;57385;41.832;23.494;2022-11-23T03:17:12;8.44;;;6.88;;
70045;SDS011;57385;41.832;23.494;2022-11-23T03:17:53;8.05;;;6.75;;
70045;SDS011;57385;41.832;23.494;2022-11-23T03:18:32;7.50;;;6.70;;
70045;SDS011;57385;41.832;23.494;2022-11-23T03:19:10;8.80;;;6.72;;
70045;SDS011;57385;41.832;23.494;2022-11-23T03:19:49;9.13;;;6.75;;
70045;SDS011;57385;41.832;23.494;2022-11-23T03:20:29;7.70;;;6.05;;
70045;SDS011;57385;41.832;23.494;2022-11-23T03:21:08;8.77;;;6.53;;
70045;SDS011;57385;41.832;23.494;2022-11-23T03:21:49;6.63;;;5.75;;
70045;SDS011;57385;41.832;23.494;2022-11-23T03:22:28;8.15;;;6.35;;
70045;SDS011;57385;41.832;23.494;2022-11-23T03:23:07;7.68;;;5.78;;
70045;SDS011;57385;41.832;23.494;2022-11-23T03:23:46;7.38;;;6.35;;
70045;SDS011;57385;41.832;23.494;2022-11-23T03:24:25;6.75;;;5.88;;
70045;SDS011;57385;41.832;23.494;2022-11-23T03:25:06;6.75;;;5.60;;
70045;SDS011;57385;41.832;23.494;2022-11-23T03:25:45;5.80;;;5.20;;
70045;SDS011;57385;41.832;23.494;2022-11-23T03:26:31;6.47;;;5.80;;
70045;SDS011;57385;41.832;23.494;2022-11-23T03:27:19;6.53;;;5.43;;
70045;SDS011;57385;41.832;23.494;2022-11-23T03:27:58;6.22;;;5.47;;
70045;SDS011;57385;41.832;23.494;2022-11-23T03:28:38;5.20;;;4.65;;
70045;SDS011;57385;41.832;23.494;2022-11-23T03:29:17;5.72;;;4.60;;
70045;SDS011;57385;41.832;23.494;2022-11-23T03:29:56;5.63;;;5.07;;
70045;SDS011;57385;41.832;23.494;2022-11-23T03:30:36;5.97;;;4.90;;
70045;SDS011;57385;41.832;23.494;2022-11-23T03:31:16;5.20;;;4.70;;
70045;SDS011;57385;41.832;23.494;2022-11-23T03:31:55;5.72;;;5.13;;
70045;SDS011;57385;41.832;23.494;2022-11-23T03:32:34;5.38;;;4.55;;
70045;SDS011;57385;41.832;23.494;2022-11-23T03:33:14;5.60;;;5.00;;
70045;SDS011;57385;41.832;23.494;2022-11-23T03:33:54;5.43;;;4.40;;
70045;SDS011;57385;41.832;23.494;2022-11-23T03:34:33;4.85;;;4.35;;
70045;SDS011;57385;41.832;23.494;2022-11-23T03:35:14;4.65;;;4.25;;
70045;SDS011;57385;41.832;23.494;2022-11-23T03:36:13;4.03;;;3.63;;
70045;SDS011;57385;41.832;23.494;2022-11-23T03:36:55;3.92;;;3.50;;
70045;SDS011;57385;41.832;23.494;2022-11-23T03:37:34;3.90;;;3.47;;
70045;SDS011;57385;41.832;23.494;2022-11-23T03:38:13;4.43;;;3.60;;
70045;SDS011;57385;41.832;23.494;2022-11-23T03:38:53;3.75;;;3.40;;
70045;SDS011;57385;41.832;23.494;2022-11-23T03:39:50;3.28;;;2.92;;
70045;SDS011;57385;41.832;23.494;2022-11-23T03:40:47;3.95;;;3.55;;
70045;SDS011;57385;41.832;23.494;2022-11-23T03:41:35;3.22;;;3.00;;
70045;SDS011;57385;41.832;23.494;2022-11-23T03:42:14;3.67;;;3.38;;
70045;SDS011;57385;41.832;23.494;2022-11-23T03:42:53;3.30;;;3.00;;
70045;SDS011;57385;41.832;23.494;2022-11-23T03:43:31;3.45;;;3.15;;
70045;SDS011;57385;41.832;23.494;2022-11-23T03:44:10;3.70;;;3.40;;
70045;SDS011;57385;41.832;23.494;2022-11-23T03:44:49;2.92;;;2.72;;
70045;SDS011;57385;41.832;23.494;2022-11-23T03:45:27;3.47;;;3.17;;
70045;SDS011;57385;41.832;23.494;2022-11-23T03:46:06;3.50;;;3.20;;
70045;SDS011;57385;41.832;23.494;2022-11-23T03:46:45;2.75;;;2.55;;
70045;SDS011;57385;41.832;23.494;2022-11-23T03:47:24;3.25;;;3.00;;
70045;SDS011;57385;41.832;23.494;2022-11-23T03:48:02;2.90;;;2.58;;
70045;SDS011;57385;41.832;23.494;2022-11-23T03:48:42;3.22;;;2.92;;
70045;SDS011;57385;41.832;23.494;2022-11-23T03:49:21;3.28;;;3.00;;
70045;SDS011;57385;41.832;23.494;2022-11-23T03:50:00;3.00;;;2.80;;
70045;SDS011;57385;41.832;23.494;2022-11-23T03:50:38;2.95;;;2.70;;
70045;SDS011;57385;41.832;23.494;2022-11-23T03:51:17;3.38;;;3.08;;
70045;SDS011;57385;41.832;23.494;2022-11-23T03:51:56;3.78;;;3.47;;
70045;SDS011;57385;41.832;23.494;2022-11-23T03:52:35;4.90;;;4.40;;
70045;SDS011;57385;41.832;23.494;2022-11-23T03:53:14;7.00;;;5.50;;
70045;SDS011;57385;41.832;23.494;2022-11-23T03:53:52;7.75;;;6.90;;
70045;SDS011;57385;41.832;23.494;2022-11-23T03:54:31;8.75;;;7.65;;
70045;SDS011;57385;41.832;23.494;2022-11-23T03:55:10;9.55;;;8.35;;
70045;SDS011;57385;41.832;23.494;2022-11-23T03:55:49;9.68;;;8.48;;
70045;SDS011;57385;41.832;23.494;2022-11-23T03:56:28;9.75;;;7.93;;
70045;SDS011;57385;41.832;23.494;2022-11-23T03:57:08;12.13;;;8.65;;
70045;SDS011;57385;41.832;23.494;2022-11-23T03:57:47;9.80;;;8.55;;
70045;SDS011;57385;41.832;23.494;2022-11-23T03:58:26;9.80;;;8.80;;
70045;SDS011;57385;41.832;23.494;2022-11-23T03:59:05;11.20;;;9.65;;
70045;SDS011;57385;41.832;23.494;2022-11-23T03:59:44;10.90;;;9.90;;
70045;SDS011;57385;41.832;23.494;2022-11-23T04:00:27;11.20;;;9.90;;
70045;SDS011;57385;41.832;23.494;2022-11-23T04:01:07;10.48;;;9.48;;
70045;SDS011;57385;41.832;23.494;2022-11-23T04:01:45;10.10;;;9.13;;
70045;SDS011;57385;41.832;23.494;2022-11-23T04:02:30;9.60;;;8.70;;
70045;SDS011;57385;41.832;23.494;2022-11-23T04:03:17;9.18;;;8.27;;
70045;SDS011;57385;41.832;23.494;2022-11-23T04:04:30;8.23;;;7.45;;
70045;SDS011;57385;41.832;23.494;2022-11-23T04:05:23;8.52;;;7.72;;